sensor_id;sensor_type;location;lat;lon;timestamp;P1;durP1;ratioP1;P2;durP2;ratioP2
17854;SDS011;9053;53.358;6.382;2023-03-04T00:00:05;11.33;;;2.60;;
17854;SDS011;9053;53.358;6.382;2023-03-04T00:02:36;7.13;;;2.00;;
17854;SDS011;9053;53.358;6.382;2023-03-04T00:05:06;8.47;;;2.27;;
17854;SDS011;9053;53.358;6.382;2023-03-04T00:07:46;9.37;;;2.27;;
17854;SDS011;9053;53.358;6.382;2023-03-04T00:10:16;9.40;;;2.87;;
17854;SDS011;9053;53.358;6.382;2023-03-04T00:12:46;8.33;;;1.93;;
17854;SDS011;9053;53.358;6.382;2023-03-04T00:15:16;9.70;;;2.10;;
17854;SDS011;9053;53.358;6.382;2023-03-04T00:17:46;10.60;;;2.77;;
17854;SDS011;9053;53.358;6.382;2023-03-04T00:20:16;11.27;;;3.30;;
17854;SDS011;9053;53.358;6.382;2023-03-04T00:22:48;14.03;;;2.30;;
17854;SDS011;9053;53.358;6.382;2023-03-04T00:25:18;10.93;;;2.50;;
17854;SDS011;9053;53.358;6.382;2023-03-04T00:27:48;11.03;;;2.43;;
17854;SDS011;9053;53.358;6.382;2023-03-04T00:30:20;9.93;;;2.53;;
17854;SDS011;9053;53.358;6.382;2023-03-04T00:32:50;9.17;;;2.03;;
17854;SDS011;9053;53.358;6.382;2023-03-04T00:35:20;4.93;;;1.80;;
17854;SDS011;9053;53.358;6.382;2023-03-04T00:37:52;13.33;;;2.40;;
17854;SDS011;9053;53.358;6.382;2023-03-04T00:40:22;16.00;;;3.00;;
17854;SDS011;9053;53.358;6.382;2023-03-04T00:42:53;10.93;;;3.13;;
17854;SDS011;9053;53.358;6.382;2023-03-04T00:45:23;8.93;;;2.20;;
17854;SDS011;9053;53.358;6.382;2023-03-04T00:47:53;9.30;;;2.60;;
17854;SDS011;9053;53.358;6.382;2023-03-04T00:50:22;10.13;;;2.17;;
17854;SDS011;9053;53.358;6.382;2023-03-04T00:52:55;9.33;;;2.30;;
17854;SDS011;9053;53.358;6.382;2023-03-04T00:55:24;8.57;;;2.00;;
17854;SDS011;9053;53.358;6.382;2023-03-04T00:57:54;10.20;;;2.63;;
17854;SDS011;9053;53.358;6.382;2023-03-04T01:00:24;9.97;;;2.07;;
17854;SDS011;9053;53.358;6.382;2023-03-04T01:02:54;7.73;;;2.30;;
17854;SDS011;9053;53.358;6.382;2023-03-04T01:05:24;10.53;;;2.40;;
17854;SDS011;9053;53.358;6.382;2023-03-04T01:07:59;9.00;;;1.97;;
17854;SDS011;9053;53.358;6.382;2023-03-04T01:10:28;10.20;;;2.40;;
17854;SDS011;9053;53.358;6.382;2023-03-04T01:12:59;8.70;;;2.13;;
17854;SDS011;9053;53.358;6.382;2023-03-04T01:15:28;6.43;;;1.93;;
17854;SDS011;9053;53.358;6.382;2023-03-04T01:17:58;8.00;;;2.07;;
17854;SDS011;9053;53.358;6.382;2023-03-04T01:20:28;12.20;;;2.67;;
17854;SDS011;9053;53.358;6.382;2023-03-04T01:23:01;10.30;;;2.60;;
17854;SDS011;9053;53.358;6.382;2023-03-04T01:25:30;9.80;;;2.50;;
17854;SDS011;9053;53.358;6.382;2023-03-04T01:28:00;11.60;;;2.33;;
17854;SDS011;9053;53.358;6.382;2023-03-04T01:30:30;9.43;;;2.20;;
17854;SDS011;9053;53.358;6.382;2023-03-04T01:33:00;6.27;;;2.03;;
17854;SDS011;9053;53.358;6.382;2023-03-04T01:35:30;12.40;;;2.53;;
17854;SDS011;9053;53.358;6.382;2023-03-04T01:38:02;7.60;;;2.40;;
17854;SDS011;9053;53.358;6.382;2023-03-04T01:40:32;10.03;;;2.57;;
17854;SDS011;9053;53.358;6.382;2023-03-04T01:43:02;6.80;;;2.17;;
17854;SDS011;9053;53.358;6.382;2023-03-04T01:45:32;7.27;;;2.20;;
17854;SDS011;9053;53.358;6.382;2023-03-04T01:48:07;9.60;;;2.47;;
17854;SDS011;9053;53.358;6.382;2023-03-04T01:50:38;9.63;;;2.30;;
17854;SDS011;9053;53.358;6.382;2023-03-04T01:53:13;10.63;;;2.60;;
17854;SDS011;9053;53.358;6.382;2023-03-04T01:55:48;12.17;;;2.23;;
17854;SDS011;9053;53.358;6.382;2023-03-04T01:58:18;6.43;;;2.33;;
17854;SDS011;9053;53.358;6.382;2023-03-04T02:00:48;4.83;;;1.60;;
17854;SDS011;9053;53.358;6.382;2023-03-04T02:03:18;10.07;;;2.40;;
17854;SDS011;9053;53.358;6.382;2023-03-04T02:05:48;6.77;;;1.80;;
17854;SDS011;9053;53.358;6.382;2023-03-04T02:08:25;5.60;;;1.80;;
17854;SDS011;9053;53.358;6.382;2023-03-04T02:10:54;7.40;;;1.57;;
17854;SDS011;9053;53.358;6.382;2023-03-04T02:13:25;8.73;;;1.70;;
17854;SDS011;9053;53.358;6.382;2023-03-04T02:15:54;10.40;;;2.10;;
17854;SDS011;9053;53.358;6.382;2023-03-04T02:18:24;7.90;;;2.13;;
17854;SDS011;9053;53.358;6.382;2023-03-04T02:20:55;6.03;;;1.70;;
17854;SDS011;9053;53.358;6.382;2023-03-04T02:23:35;8.20;;;1.93;;
17854;SDS011;9053;53.358;6.382;2023-03-04T02:26:15;5.43;;;2.07;;
17854;SDS011;9053;53.358;6.382;2023-03-04T02:28:47;8.20;;;2.30;;
17854;SDS011;9053;53.358;6.382;2023-03-04T02:31:21;8.27;;;2.03;;
17854;SDS011;9053;53.358;6.382;2023-03-04T02:33:55;8.27;;;2.07;;
17854;SDS011;9053;53.358;6.382;2023-03-04T02:36:27;7.90;;;1.93;;
17854;SDS011;9053;53.358;6.382;2023-03-04T02:39:00;7.57;;;2.20;;
17854;SDS011;9053;53.358;6.382;2023-03-04T02:41:34;8.40;;;2.10;;
17854;SDS011;9053;53.358;6.382;2023-03-04T02:44:08;8.60;;;2.50;;
17854;SDS011;9053;53.358;6.382;2023-03-04T02:46:45;6.67;;;1.90;;
17854;SDS011;9053;53.358;6.382;2023-03-04T02:49:16;12.13;;;2.73;;
17854;SDS011;9053;53.358;6.382;2023-03-04T02:51:46;8.60;;;2.03;;
17854;SDS011;9053;53.358;6.382;2023-03-04T02:54:21;7.83;;;2.37;;
17854;SDS011;9053;53.358;6.382;2023-03-04T02:56:55;5.80;;;2.17;;
17854;SDS011;9053;53.358;6.382;2023-03-04T02:59:27;5.27;;;1.70;;
17854;SDS011;9053;53.358;6.382;2023-03-04T03:01:56;9.37;;;2.13;;
17854;SDS011;9053;53.358;6.382;2023-03-04T03:04:27;6.47;;;1.90;;
17854;SDS011;9053;53.358;6.382;2023-03-04T03:06:57;8.43;;;1.90;;
17854;SDS011;9053;53.358;6.382;2023-03-04T03:09:27;12.37;;;2.50;;
17854;SDS011;9053;53.358;6.382;2023-03-04T03:12:00;5.83;;;1.70;;
17854;SDS011;9053;53.358;6.382;2023-03-04T03:14:30;9.90;;;1.80;;
17854;SDS011;9053;53.358;6.382;2023-03-04T03:17:00;8.67;;;1.87;;
17854;SDS011;9053;53.358;6.382;2023-03-04T03:19:30;7.37;;;1.90;;
17854;SDS011;9053;53.358;6.382;2023-03-04T03:21:59;7.27;;;1.73;;
17854;SDS011;9053;53.358;6.382;2023-03-04T03:24:30;9.80;;;1.80;;
17854;SDS011;9053;53.358;6.382;2023-03-04T03:27:03;9.57;;;1.93;;
17854;SDS011;9053;53.358;6.382;2023-03-04T03:29:32;7.07;;;1.80;;
17854;SDS011;9053;53.358;6.382;2023-03-04T03:32:02;7.03;;;2.13;;
17854;SDS011;9053;53.358;6.382;2023-03-04T03:34:32;8.90;;;1.77;;
17854;SDS011;9053;53.358;6.382;2023-03-04T03:37:02;7.77;;;1.83;;
17854;SDS011;9053;53.358;6.382;2023-03-04T03:39:32;8.20;;;2.07;;
17854;SDS011;9053;53.358;6.382;2023-03-04T03:42:05;7.00;;;1.97;;
17854;SDS011;9053;53.358;6.382;2023-03-04T03:44:37;6.90;;;1.70;;
17854;SDS011;9053;53.358;6.382;2023-03-04T03:47:06;3.50;;;1.57;;
17854;SDS011;9053;53.358;6.382;2023-03-04T03:49:36;6.43;;;1.53;;
17854;SDS011;9053;53.358;6.382;2023-03-04T03:52:06;4.93;;;1.83;;
17854;SDS011;9053;53.358;6.382;2023-03-04T03:54:36;5.13;;;1.47;;
17854;SDS011;9053;53.358;6.382;2023-03-04T03:57:09;5.50;;;1.70;;
17854;SDS011;9053;53.358;6.382;2023-03-04T03:59:39;7.17;;;1.83;;
17854;SDS011;9053;53.358;6.382;2023-03-04T04:02:09;6.73;;;1.90;;
17854;SDS011;9053;53.358;6.382;2023-03-04T04:04:39;4.80;;;1.60;;
17854;SDS011;9053;53.358;6.382;2023-03-04T04:07:09;5.37;;;1.83;;
17854;SDS011;9053;53.358;6.382;2023-03-04T04:09:39;8.47;;;1.83;;
17854;SDS011;9053;53.358;6.382;2023-03-04T04:12:13;7.57;;;1.83;;
17854;SDS011;9053;53.358;6.382;2023-03-04T04:14:43;3.93;;;1.73;;
17854;SDS011;9053;53.358;6.382;2023-03-04T04:17:13;5.87;;;2.07;;
17854;SDS011;9053;53.358;6.382;2023-03-04T04:19:43;8.00;;;1.80;;
17854;SDS011;9053;53.358;6.382;2023-03-04T04:22:14;7.80;;;1.97;;
17854;SDS011;9053;53.358;6.382;2023-03-04T04:24:47;10.73;;;1.80;;
17854;SDS011;9053;53.358;6.382;2023-03-04T04:27:20;8.40;;;2.13;;
17854;SDS011;9053;53.358;6.382;2023-03-04T04:29:50;9.13;;;2.23;;
17854;SDS011;9053;53.358;6.382;2023-03-04T04:32:20;6.63;;;2.07;;
17854;SDS011;9053;53.358;6.382;2023-03-04T04:34:50;6.03;;;1.47;;
17854;SDS011;9053;53.358;6.382;2023-03-04T04:37:20;8.93;;;2.30;;
17854;SDS011;9053;53.358;6.382;2023-03-04T04:39:50;7.10;;;1.60;;
17854;SDS011;9053;53.358;6.382;2023-03-04T04:42:23;5.67;;;2.33;;
17854;SDS011;9053;53.358;6.382;2023-03-04T04:44:53;7.07;;;1.83;;
17854;SDS011;9053;53.358;6.382;2023-03-04T04:47:24;8.47;;;1.97;;
17854;SDS011;9053;53.358;6.382;2023-03-04T04:49:54;7.60;;;2.30;;
17854;SDS011;9053;53.358;6.382;2023-03-04T04:52:23;12.03;;;2.40;;
17854;SDS011;9053;53.358;6.382;2023-03-04T04:54:53;6.73;;;1.73;;
17854;SDS011;9053;53.358;6.382;2023-03-04T04:57:26;10.30;;;2.10;;
17854;SDS011;9053;53.358;6.382;2023-03-04T04:59:56;7.33;;;2.20;;
17854;SDS011;9053;53.358;6.382;2023-03-04T05:02:26;10.33;;;2.03;;
17854;SDS011;9053;53.358;6.382;2023-03-04T05:04:56;9.00;;;2.07;;
17854;SDS011;9053;53.358;6.382;2023-03-04T05:07:26;9.60;;;2.40;;
17854;SDS011;9053;53.358;6.382;2023-03-04T05:09:56;8.90;;;2.63;;
17854;SDS011;9053;53.358;6.382;2023-03-04T05:12:28;8.53;;;2.30;;
17854;SDS011;9053;53.358;6.382;2023-03-04T05:14:58;8.77;;;1.93;;
17854;SDS011;9053;53.358;6.382;2023-03-04T05:17:31;5.40;;;2.20;;
17854;SDS011;9053;53.358;6.382;2023-03-04T05:20:01;13.07;;;2.50;;
17854;SDS011;9053;53.358;6.382;2023-03-04T05:22:32;8.20;;;2.23;;
17854;SDS011;9053;53.358;6.382;2023-03-04T05:25:02;8.73;;;1.73;;
17854;SDS011;9053;53.358;6.382;2023-03-04T05:27:35;12.97;;;2.10;;
17854;SDS011;9053;53.358;6.382;2023-03-04T05:30:05;11.60;;;2.27;;
17854;SDS011;9053;53.358;6.382;2023-03-04T05:32:36;8.27;;;1.53;;
17854;SDS011;9053;53.358;6.382;2023-03-04T05:35:07;5.57;;;1.63;;
17854;SDS011;9053;53.358;6.382;2023-03-04T05:37:37;12.77;;;2.63;;
17854;SDS011;9053;53.358;6.382;2023-03-04T05:40:08;6.53;;;2.10;;
17854;SDS011;9053;53.358;6.382;2023-03-04T05:42:41;17.60;;;2.47;;
17854;SDS011;9053;53.358;6.382;2023-03-04T05:45:11;10.17;;;2.00;;
17854;SDS011;9053;53.358;6.382;2023-03-04T05:47:42;6.87;;;2.30;;
17854;SDS011;9053;53.358;6.382;2023-03-04T05:50:12;9.80;;;2.43;;
17854;SDS011;9053;53.358;6.382;2023-03-04T05:52:42;7.97;;;2.07;;
17854;SDS011;9053;53.358;6.382;2023-03-04T05:55:12;5.50;;;1.97;;
17854;SDS011;9053;53.358;6.382;2023-03-04T05:57:45;9.47;;;2.03;;
17854;SDS011;9053;53.358;6.382;2023-03-04T06:00:15;8.93;;;2.20;;
17854;SDS011;9053;53.358;6.382;2023-03-04T06:02:46;7.60;;;1.83;;
17854;SDS011;9053;53.358;6.382;2023-03-04T06:05:16;10.50;;;2.23;;
17854;SDS011;9053;53.358;6.382;2023-03-04T06:07:50;9.77;;;2.17;;
17854;SDS011;9053;53.358;6.382;2023-03-04T06:10:19;7.93;;;2.00;;
17854;SDS011;9053;53.358;6.382;2023-03-04T06:12:52;9.43;;;1.90;;
17854;SDS011;9053;53.358;6.382;2023-03-04T06:15:22;6.50;;;1.80;;
17854;SDS011;9053;53.358;6.382;2023-03-04T06:17:51;6.80;;;1.93;;
17854;SDS011;9053;53.358;6.382;2023-03-04T06:20:21;6.30;;;2.03;;
17854;SDS011;9053;53.358;6.382;2023-03-04T06:22:51;6.97;;;2.10;;
17854;SDS011;9053;53.358;6.382;2023-03-04T06:25:21;6.60;;;1.67;;
17854;SDS011;9053;53.358;6.382;2023-03-04T06:27:54;10.17;;;1.67;;
17854;SDS011;9053;53.358;6.382;2023-03-04T06:30:24;7.80;;;1.70;;
17854;SDS011;9053;53.358;6.382;2023-03-04T06:32:53;8.17;;;1.57;;
17854;SDS011;9053;53.358;6.382;2023-03-04T06:35:23;5.80;;;2.07;;
17854;SDS011;9053;53.358;6.382;2023-03-04T06:37:53;6.33;;;2.03;;
17854;SDS011;9053;53.358;6.382;2023-03-04T06:40:23;6.37;;;1.50;;
17854;SDS011;9053;53.358;6.382;2023-03-04T06:42:55;10.97;;;2.10;;
17854;SDS011;9053;53.358;6.382;2023-03-04T06:45:25;8.97;;;1.83;;
17854;SDS011;9053;53.358;6.382;2023-03-04T06:47:55;7.17;;;1.93;;
17854;SDS011;9053;53.358;6.382;2023-03-04T06:50:25;10.07;;;1.80;;
17854;SDS011;9053;53.358;6.382;2023-03-04T06:52:55;8.30;;;2.10;;
17854;SDS011;9053;53.358;6.382;2023-03-04T06:55:25;11.03;;;2.20;;
17854;SDS011;9053;53.358;6.382;2023-03-04T06:57:57;11.03;;;2.20;;
17854;SDS011;9053;53.358;6.382;2023-03-04T07:00:29;10.40;;;1.93;;
17854;SDS011;9053;53.358;6.382;2023-03-04T07:02:59;7.83;;;1.90;;
17854;SDS011;9053;53.358;6.382;2023-03-04T07:05:32;11.40;;;1.93;;
17854;SDS011;9053;53.358;6.382;2023-03-04T07:08:02;7.43;;;2.00;;
17854;SDS011;9053;53.358;6.382;2023-03-04T07:10:33;11.03;;;3.20;;
17854;SDS011;9053;53.358;6.382;2023-03-04T07:13:05;12.87;;;2.90;;
17854;SDS011;9053;53.358;6.382;2023-03-04T07:15:36;9.00;;;2.10;;
17854;SDS011;9053;53.358;6.382;2023-03-04T07:18:06;10.33;;;2.47;;
17854;SDS011;9053;53.358;6.382;2023-03-04T07:20:36;13.40;;;3.00;;
17854;SDS011;9053;53.358;6.382;2023-03-04T07:23:06;15.20;;;3.53;;
17854;SDS011;9053;53.358;6.382;2023-03-04T07:25:36;16.87;;;3.70;;
17854;SDS011;9053;53.358;6.382;2023-03-04T07:28:08;12.53;;;3.53;;
17854;SDS011;9053;53.358;6.382;2023-03-04T07:30:38;13.77;;;2.97;;
17854;SDS011;9053;53.358;6.382;2023-03-04T07:33:08;12.20;;;3.20;;
17854;SDS011;9053;53.358;6.382;2023-03-04T07:35:38;17.83;;;5.53;;
17854;SDS011;9053;53.358;6.382;2023-03-04T07:38:10;17.50;;;4.27;;
17854;SDS011;9053;53.358;6.382;2023-03-04T07:40:40;16.77;;;3.60;;
17854;SDS011;9053;53.358;6.382;2023-03-04T07:43:12;15.00;;;3.57;;
17854;SDS011;9053;53.358;6.382;2023-03-04T07:45:42;17.33;;;3.50;;
17854;SDS011;9053;53.358;6.382;2023-03-04T07:48:12;11.83;;;3.60;;
17854;SDS011;9053;53.358;6.382;2023-03-04T07:50:42;17.57;;;2.93;;
17854;SDS011;9053;53.358;6.382;2023-03-04T07:53:12;15.13;;;3.70;;
17854;SDS011;9053;53.358;6.382;2023-03-04T07:55:42;18.77;;;4.27;;
17854;SDS011;9053;53.358;6.382;2023-03-04T07:58:14;13.93;;;3.43;;
17854;SDS011;9053;53.358;6.382;2023-03-04T08:00:45;13.43;;;2.93;;
17854;SDS011;9053;53.358;6.382;2023-03-04T08:03:15;12.93;;;3.90;;
17854;SDS011;9053;53.358;6.382;2023-03-04T08:05:48;17.03;;;3.60;;
17854;SDS011;9053;53.358;6.382;2023-03-04T08:08:19;12.47;;;3.10;;
17854;SDS011;9053;53.358;6.382;2023-03-04T08:10:49;16.93;;;3.47;;
17854;SDS011;9053;53.358;6.382;2023-03-04T08:13:22;13.87;;;3.97;;
17854;SDS011;9053;53.358;6.382;2023-03-04T08:15:52;13.63;;;3.13;;
17854;SDS011;9053;53.358;6.382;2023-03-04T08:18:24;17.30;;;3.80;;
17854;SDS011;9053;53.358;6.382;2023-03-04T08:20:54;16.33;;;3.07;;
17854;SDS011;9053;53.358;6.382;2023-03-04T08:23:24;14.23;;;3.07;;
17854;SDS011;9053;53.358;6.382;2023-03-04T08:25:54;18.57;;;3.57;;
17854;SDS011;9053;53.358;6.382;2023-03-04T08:28:26;20.73;;;4.13;;
17854;SDS011;9053;53.358;6.382;2023-03-04T08:30:56;21.10;;;3.80;;
17854;SDS011;9053;53.358;6.382;2023-03-04T08:33:26;18.90;;;3.70;;
17854;SDS011;9053;53.358;6.382;2023-03-04T08:35:56;15.57;;;3.70;;
17854;SDS011;9053;53.358;6.382;2023-03-04T08:38:29;15.17;;;3.30;;
17854;SDS011;9053;53.358;6.382;2023-03-04T08:41:00;19.67;;;3.40;;
17854;SDS011;9053;53.358;6.382;2023-03-04T08:43:33;11.17;;;2.87;;
17854;SDS011;9053;53.358;6.382;2023-03-04T08:46:03;12.13;;;3.20;;
17854;SDS011;9053;53.358;6.382;2023-03-04T08:48:33;14.57;;;3.10;;
17854;SDS011;9053;53.358;6.382;2023-03-04T08:51:06;13.20;;;3.10;;
17854;SDS011;9053;53.358;6.382;2023-03-04T08:53:37;15.60;;;4.00;;
17854;SDS011;9053;53.358;6.382;2023-03-04T08:56:07;9.93;;;2.73;;
17854;SDS011;9053;53.358;6.382;2023-03-04T08:58:40;11.77;;;2.60;;
17854;SDS011;9053;53.358;6.382;2023-03-04T09:01:13;13.60;;;3.33;;
17854;SDS011;9053;53.358;6.382;2023-03-04T09:03:43;16.80;;;2.63;;
17854;SDS011;9053;53.358;6.382;2023-03-04T09:06:16;12.10;;;2.90;;
17854;SDS011;9053;53.358;6.382;2023-03-04T09:08:47;9.00;;;2.70;;
17854;SDS011;9053;53.358;6.382;2023-03-04T09:11:19;11.90;;;2.60;;
17854;SDS011;9053;53.358;6.382;2023-03-04T09:13:51;8.43;;;2.17;;
17854;SDS011;9053;53.358;6.382;2023-03-04T09:16:21;12.10;;;2.47;;
17854;SDS011;9053;53.358;6.382;2023-03-04T09:18:51;12.27;;;2.37;;
17854;SDS011;9053;53.358;6.382;2023-03-04T09:21:21;8.67;;;2.00;;
17854;SDS011;9053;53.358;6.382;2023-03-04T09:23:51;9.83;;;2.50;;
17854;SDS011;9053;53.358;6.382;2023-03-04T09:26:22;9.07;;;2.50;;
17854;SDS011;9053;53.358;6.382;2023-03-04T09:28:56;8.07;;;1.90;;
17854;SDS011;9053;53.358;6.382;2023-03-04T09:31:27;6.17;;;1.63;;
17854;SDS011;9053;53.358;6.382;2023-03-04T09:33:58;4.80;;;1.40;;
17854;SDS011;9053;53.358;6.382;2023-03-04T09:36:29;9.23;;;2.40;;
17854;SDS011;9053;53.358;6.382;2023-03-04T09:38:58;7.67;;;2.10;;
17854;SDS011;9053;53.358;6.382;2023-03-04T09:41:31;7.63;;;1.93;;
17854;SDS011;9053;53.358;6.382;2023-03-04T09:44:10;8.27;;;2.20;;
17854;SDS011;9053;53.358;6.382;2023-03-04T09:46:45;12.00;;;2.67;;
17854;SDS011;9053;53.358;6.382;2023-03-04T09:49:17;11.23;;;3.30;;
17854;SDS011;9053;53.358;6.382;2023-03-04T09:51:54;14.57;;;3.13;;
17854;SDS011;9053;53.358;6.382;2023-03-04T09:54:32;13.93;;;2.83;;
17854;SDS011;9053;53.358;6.382;2023-03-04T09:57:21;15.90;;;3.13;;
17854;SDS011;9053;53.358;6.382;2023-03-04T10:00:08;13.73;;;2.77;;
17854;SDS011;9053;53.358;6.382;2023-03-04T10:02:49;14.40;;;2.63;;
17854;SDS011;9053;53.358;6.382;2023-03-04T10:05:35;10.30;;;2.43;;
17854;SDS011;9053;53.358;6.382;2023-03-04T10:08:23;13.67;;;3.27;;
17854;SDS011;9053;53.358;6.382;2023-03-04T10:11:05;13.53;;;2.90;;
17854;SDS011;9053;53.358;6.382;2023-03-04T10:13:46;12.43;;;2.97;;
17854;SDS011;9053;53.358;6.382;2023-03-04T10:16:26;12.33;;;3.63;;
17854;SDS011;9053;53.358;6.382;2023-03-04T10:19:01;12.57;;;3.40;;
17854;SDS011;9053;53.358;6.382;2023-03-04T10:21:51;14.97;;;3.50;;
17854;SDS011;9053;53.358;6.382;2023-03-04T10:24:22;11.30;;;2.87;;
17854;SDS011;9053;53.358;6.382;2023-03-04T10:26:56;14.57;;;3.57;;
17854;SDS011;9053;53.358;6.382;2023-03-04T10:29:31;13.17;;;3.93;;
17854;SDS011;9053;53.358;6.382;2023-03-04T10:32:04;14.03;;;3.30;;
17854;SDS011;9053;53.358;6.382;2023-03-04T10:34:37;13.40;;;2.90;;
17854;SDS011;9053;53.358;6.382;2023-03-04T10:37:07;14.83;;;2.67;;
17854;SDS011;9053;53.358;6.382;2023-03-04T10:39:38;20.77;;;3.17;;
17854;SDS011;9053;53.358;6.382;2023-03-04T10:42:22;8.57;;;2.57;;
17854;SDS011;9053;53.358;6.382;2023-03-04T10:44:58;11.07;;;2.80;;
17854;SDS011;9053;53.358;6.382;2023-03-04T10:47:33;10.77;;;2.47;;
17854;SDS011;9053;53.358;6.382;2023-03-04T10:50:05;8.83;;;3.17;;
17854;SDS011;9053;53.358;6.382;2023-03-04T10:52:52;15.23;;;3.50;;
17854;SDS011;9053;53.358;6.382;2023-03-04T10:55:23;15.97;;;3.93;;
17854;SDS011;9053;53.358;6.382;2023-03-04T10:58:00;13.47;;;3.33;;
17854;SDS011;9053;53.358;6.382;2023-03-04T11:00:32;12.50;;;2.50;;
17854;SDS011;9053;53.358;6.382;2023-03-04T11:06:10;8.90;;;2.23;;
17854;SDS011;9053;53.358;6.382;2023-03-04T11:08:51;11.63;;;2.97;;
17854;SDS011;9053;53.358;6.382;2023-03-04T11:11:24;14.17;;;3.27;;
17854;SDS011;9053;53.358;6.382;2023-03-04T11:14:00;15.50;;;3.00;;
17854;SDS011;9053;53.358;6.382;2023-03-04T11:16:39;14.13;;;2.90;;
17854;SDS011;9053;53.358;6.382;2023-03-04T11:19:13;21.57;;;3.60;;
17854;SDS011;9053;53.358;6.382;2023-03-04T11:21:46;17.90;;;3.63;;
17854;SDS011;9053;53.358;6.382;2023-03-04T11:24:18;14.53;;;3.63;;
17854;SDS011;9053;53.358;6.382;2023-03-04T11:26:56;13.17;;;3.23;;
17854;SDS011;9053;53.358;6.382;2023-03-04T11:29:33;14.50;;;3.70;;
17854;SDS011;9053;53.358;6.382;2023-03-04T11:32:10;11.20;;;3.30;;
17854;SDS011;9053;53.358;6.382;2023-03-04T11:34:47;17.70;;;3.57;;
17854;SDS011;9053;53.358;6.382;2023-03-04T11:37:21;17.87;;;4.57;;
17854;SDS011;9053;53.358;6.382;2023-03-04T11:39:58;15.23;;;3.63;;
17854;SDS011;9053;53.358;6.382;2023-03-04T11:42:33;19.30;;;4.13;;
17854;SDS011;9053;53.358;6.382;2023-03-04T11:45:10;18.73;;;3.37;;
17854;SDS011;9053;53.358;6.382;2023-03-04T11:47:57;12.87;;;2.73;;
17854;SDS011;9053;53.358;6.382;2023-03-04T11:50:44;15.03;;;3.13;;
17854;SDS011;9053;53.358;6.382;2023-03-04T11:53:27;12.90;;;3.73;;
17854;SDS011;9053;53.358;6.382;2023-03-04T11:56:10;15.50;;;3.73;;
17854;SDS011;9053;53.358;6.382;2023-03-04T11:58:50;13.37;;;2.80;;
17854;SDS011;9053;53.358;6.382;2023-03-04T12:01:35;13.07;;;3.20;;
17854;SDS011;9053;53.358;6.382;2023-03-04T12:04:17;14.80;;;3.63;;
17854;SDS011;9053;53.358;6.382;2023-03-04T12:07:11;11.57;;;2.67;;
17854;SDS011;9053;53.358;6.382;2023-03-04T12:09:54;6.70;;;2.30;;
17854;SDS011;9053;53.358;6.382;2023-03-04T12:12:40;10.33;;;2.20;;
17854;SDS011;9053;53.358;6.382;2023-03-04T12:15:25;9.53;;;2.50;;
17854;SDS011;9053;53.358;6.382;2023-03-04T12:18:04;11.73;;;3.10;;
17854;SDS011;9053;53.358;6.382;2023-03-04T12:20:51;9.47;;;3.10;;
17854;SDS011;9053;53.358;6.382;2023-03-04T12:23:41;19.57;;;3.50;;
17854;SDS011;9053;53.358;6.382;2023-03-04T12:26:37;14.40;;;3.07;;
17854;SDS011;9053;53.358;6.382;2023-03-04T12:29:12;12.27;;;3.00;;
17854;SDS011;9053;53.358;6.382;2023-03-04T12:31:49;12.30;;;2.80;;
17854;SDS011;9053;53.358;6.382;2023-03-04T12:37:33;12.20;;;3.17;;
17854;SDS011;9053;53.358;6.382;2023-03-04T12:40:24;6.60;;;2.33;;
17854;SDS011;9053;53.358;6.382;2023-03-04T12:43:04;12.47;;;2.40;;
17854;SDS011;9053;53.358;6.382;2023-03-04T12:45:57;10.80;;;2.47;;
17854;SDS011;9053;53.358;6.382;2023-03-04T12:48:36;14.47;;;3.13;;
17854;SDS011;9053;53.358;6.382;2023-03-04T12:51:13;15.30;;;3.53;;
17854;SDS011;9053;53.358;6.382;2023-03-04T12:53:54;10.13;;;2.83;;
17854;SDS011;9053;53.358;6.382;2023-03-04T12:56:39;13.40;;;2.53;;
17854;SDS011;9053;53.358;6.382;2023-03-04T12:59:15;11.07;;;2.43;;
17854;SDS011;9053;53.358;6.382;2023-03-04T13:01:49;8.10;;;2.50;;
17854;SDS011;9053;53.358;6.382;2023-03-04T13:04:29;10.30;;;2.17;;
17854;SDS011;9053;53.358;6.382;2023-03-04T13:07:10;9.07;;;2.67;;
17854;SDS011;9053;53.358;6.382;2023-03-04T13:09:46;8.80;;;2.53;;
17854;SDS011;9053;53.358;6.382;2023-03-04T13:12:25;10.27;;;2.63;;
17854;SDS011;9053;53.358;6.382;2023-03-04T13:17:47;9.50;;;2.80;;
17854;SDS011;9053;53.358;6.382;2023-03-04T13:20:18;12.50;;;3.30;;
17854;SDS011;9053;53.358;6.382;2023-03-04T13:22:54;12.17;;;2.70;;
17854;SDS011;9053;53.358;6.382;2023-03-04T13:25:29;13.23;;;3.03;;
17854;SDS011;9053;53.358;6.382;2023-03-04T13:31:05;11.00;;;2.73;;
17854;SDS011;9053;53.358;6.382;2023-03-04T13:33:51;10.33;;;2.47;;
17854;SDS011;9053;53.358;6.382;2023-03-04T13:36:29;9.57;;;2.73;;
17854;SDS011;9053;53.358;6.382;2023-03-04T13:39:29;9.07;;;2.10;;
17854;SDS011;9053;53.358;6.382;2023-03-04T13:42:00;8.40;;;2.10;;
17854;SDS011;9053;53.358;6.382;2023-03-04T13:44:54;7.67;;;2.40;;
17854;SDS011;9053;53.358;6.382;2023-03-04T13:47:29;15.40;;;2.50;;
17854;SDS011;9053;53.358;6.382;2023-03-04T13:50:22;9.77;;;3.00;;
17854;SDS011;9053;53.358;6.382;2023-03-04T13:52:56;11.90;;;3.03;;
17854;SDS011;9053;53.358;6.382;2023-03-04T13:55:30;8.53;;;2.30;;
17854;SDS011;9053;53.358;6.382;2023-03-04T13:58:12;8.93;;;2.53;;
17854;SDS011;9053;53.358;6.382;2023-03-04T14:00:51;11.67;;;3.20;;
17854;SDS011;9053;53.358;6.382;2023-03-04T14:03:23;9.97;;;2.63;;
17854;SDS011;9053;53.358;6.382;2023-03-04T14:08:45;10.97;;;2.07;;
17854;SDS011;9053;53.358;6.382;2023-03-04T14:11:20;10.93;;;2.60;;
17854;SDS011;9053;53.358;6.382;2023-03-04T14:13:55;12.40;;;2.50;;
17854;SDS011;9053;53.358;6.382;2023-03-04T14:16:31;8.40;;;2.20;;
17854;SDS011;9053;53.358;6.382;2023-03-04T14:19:06;12.17;;;2.70;;
17854;SDS011;9053;53.358;6.382;2023-03-04T14:21:44;12.37;;;2.77;;
17854;SDS011;9053;53.358;6.382;2023-03-04T14:24:16;9.20;;;3.13;;
17854;SDS011;9053;53.358;6.382;2023-03-04T14:26:48;14.37;;;2.97;;
17854;SDS011;9053;53.358;6.382;2023-03-04T14:29:22;11.17;;;2.93;;
17854;SDS011;9053;53.358;6.382;2023-03-04T14:31:55;11.77;;;3.23;;
17854;SDS011;9053;53.358;6.382;2023-03-04T14:34:29;9.80;;;2.67;;
17854;SDS011;9053;53.358;6.382;2023-03-04T14:37:01;10.70;;;2.67;;
17854;SDS011;9053;53.358;6.382;2023-03-04T14:39:32;14.20;;;3.23;;
17854;SDS011;9053;53.358;6.382;2023-03-04T14:42:05;14.97;;;2.87;;
17854;SDS011;9053;53.358;6.382;2023-03-04T14:44:39;14.17;;;2.90;;
17854;SDS011;9053;53.358;6.382;2023-03-04T14:47:18;10.83;;;2.90;;
17854;SDS011;9053;53.358;6.382;2023-03-04T14:49:52;14.17;;;2.73;;
17854;SDS011;9053;53.358;6.382;2023-03-04T14:52:26;8.67;;;2.83;;
17854;SDS011;9053;53.358;6.382;2023-03-04T14:55:15;10.40;;;2.60;;
17854;SDS011;9053;53.358;6.382;2023-03-04T14:57:48;13.77;;;2.67;;
17854;SDS011;9053;53.358;6.382;2023-03-04T15:00:26;17.53;;;3.10;;
17854;SDS011;9053;53.358;6.382;2023-03-04T15:03:00;13.60;;;2.67;;
17854;SDS011;9053;53.358;6.382;2023-03-04T15:05:32;9.43;;;2.73;;
17854;SDS011;9053;53.358;6.382;2023-03-04T15:08:05;9.03;;;2.50;;
17854;SDS011;9053;53.358;6.382;2023-03-04T15:10:52;7.73;;;2.47;;
17854;SDS011;9053;53.358;6.382;2023-03-04T15:13:35;9.87;;;7.50;;
17854;SDS011;9053;53.358;6.382;2023-03-04T15:16:06;14.83;;;3.60;;
17854;SDS011;9053;53.358;6.382;2023-03-04T15:18:40;11.20;;;2.73;;
17854;SDS011;9053;53.358;6.382;2023-03-04T15:21:29;10.57;;;2.80;;
17854;SDS011;9053;53.358;6.382;2023-03-04T15:24:06;13.73;;;2.93;;
17854;SDS011;9053;53.358;6.382;2023-03-04T15:26:39;13.80;;;2.70;;
17854;SDS011;9053;53.358;6.382;2023-03-04T15:29:12;10.87;;;3.13;;
17854;SDS011;9053;53.358;6.382;2023-03-04T15:31:43;10.37;;;2.70;;
17854;SDS011;9053;53.358;6.382;2023-03-04T15:34:17;8.50;;;2.50;;
17854;SDS011;9053;53.358;6.382;2023-03-04T15:36:49;9.40;;;2.53;;
17854;SDS011;9053;53.358;6.382;2023-03-04T15:39:21;8.87;;;2.80;;
17854;SDS011;9053;53.358;6.382;2023-03-04T15:41:53;11.60;;;2.30;;
17854;SDS011;9053;53.358;6.382;2023-03-04T15:44:26;10.00;;;2.77;;
17854;SDS011;9053;53.358;6.382;2023-03-04T15:46:56;10.87;;;2.57;;